sensor_id;sensor_type;location;lat;lon;timestamp;P1;durP1;ratioP1;P2;durP2;ratioP2
12302;SDS011;6214;48.012;7.862;2022-10-30T00:00:26;14.77;;;2.20;;
12302;SDS011;6214;48.012;7.862;2022-10-30T00:02:54;14.35;;;2.35;;
12302;SDS011;6214;48.012;7.862;2022-10-30T00:05:21;14.70;;;2.00;;
12302;SDS011;6214;48.012;7.862;2022-10-30T00:07:49;14.10;;;2.22;;
12302;SDS011;6214;48.012;7.862;2022-10-30T00:10:16;13.20;;;2.10;;
12302;SDS011;6214;48.012;7.862;2022-10-30T00:12:43;13.77;;;2.53;;
12302;SDS011;6214;48.012;7.862;2022-10-30T00:15:10;14.80;;;2.47;;
12302;SDS011;6214;48.012;7.862;2022-10-30T00:17:37;14.50;;;2.30;;
12302;SDS011;6214;48.012;7.862;2022-10-30T00:20:04;15.68;;;2.20;;
12302;SDS011;6214;48.012;7.862;2022-10-30T00:22:33;16.42;;;2.70;;
12302;SDS011;6214;48.012;7.862;2022-10-30T00:25:01;14.65;;;2.38;;
12302;SDS011;6214;48.012;7.862;2022-10-30T00:27:29;12.43;;;2.20;;
12302;SDS011;6214;48.012;7.862;2022-10-30T00:29:56;15.57;;;3.00;;
12302;SDS011;6214;48.012;7.862;2022-10-30T00:32:23;14.63;;;2.60;;
12302;SDS011;6214;48.012;7.862;2022-10-30T00:34:50;15.27;;;3.00;;
12302;SDS011;6214;48.012;7.862;2022-10-30T00:37:17;17.00;;;3.45;;
12302;SDS011;6214;48.012;7.862;2022-10-30T00:39:44;16.10;;;3.30;;
12302;SDS011;6214;48.012;7.862;2022-10-30T00:42:12;15.35;;;2.80;;
12302;SDS011;6214;48.012;7.862;2022-10-30T00:49:43;13.65;;;2.60;;
12302;SDS011;6214;48.012;7.862;2022-10-30T00:52:21;13.55;;;2.90;;
12302;SDS011;6214;48.012;7.862;2022-10-30T00:54:52;14.90;;;3.30;;
12302;SDS011;6214;48.012;7.862;2022-10-30T00:57:20;14.93;;;3.10;;
12302;SDS011;6214;48.012;7.862;2022-10-30T00:59:47;16.55;;;3.15;;
12302;SDS011;6214;48.012;7.862;2022-10-30T01:02:15;16.35;;;3.00;;
12302;SDS011;6214;48.012;7.862;2022-10-30T01:04:44;16.63;;;3.47;;
12302;SDS011;6214;48.012;7.862;2022-10-30T01:07:13;15.38;;;3.33;;
12302;SDS011;6214;48.012;7.862;2022-10-30T01:09:42;15.68;;;3.53;;
12302;SDS011;6214;48.012;7.862;2022-10-30T01:12:11;14.52;;;2.90;;
12302;SDS011;6214;48.012;7.862;2022-10-30T01:14:40;15.15;;;3.00;;
12302;SDS011;6214;48.012;7.862;2022-10-30T01:26:10;17.50;;;3.08;;
12302;SDS011;6214;48.012;7.862;2022-10-30T01:31:12;15.57;;;3.03;;
12302;SDS011;6214;48.012;7.862;2022-10-30T01:36:29;13.70;;;2.63;;
12302;SDS011;6214;48.012;7.862;2022-10-30T01:39:14;15.15;;;3.10;;
12302;SDS011;6214;48.012;7.862;2022-10-30T01:41:45;13.82;;;2.92;;
12302;SDS011;6214;48.012;7.862;2022-10-30T01:44:16;15.50;;;2.65;;
12302;SDS011;6214;48.012;7.862;2022-10-30T01:58:16;13.90;;;2.20;;
12302;SDS011;6214;48.012;7.862;2022-10-30T02:00:57;14.82;;;2.50;;
12302;SDS011;6214;48.012;7.862;2022-10-30T02:03:26;15.43;;;2.70;;
12302;SDS011;6214;48.012;7.862;2022-10-30T02:05:53;15.30;;;2.60;;
12302;SDS011;6214;48.012;7.862;2022-10-30T02:08:20;14.93;;;2.60;;
12302;SDS011;6214;48.012;7.862;2022-10-30T02:10:47;14.50;;;2.20;;
12302;SDS011;6214;48.012;7.862;2022-10-30T02:13:17;14.02;;;2.40;;
12302;SDS011;6214;48.012;7.862;2022-10-30T02:15:44;14.38;;;2.50;;
12302;SDS011;6214;48.012;7.862;2022-10-30T02:18:13;13.70;;;2.40;;
12302;SDS011;6214;48.012;7.862;2022-10-30T02:20:40;13.93;;;2.40;;
12302;SDS011;6214;48.012;7.862;2022-10-30T02:23:07;14.13;;;2.50;;
12302;SDS011;6214;48.012;7.862;2022-10-30T02:25:38;15.27;;;2.33;;
12302;SDS011;6214;48.012;7.862;2022-10-30T02:28:05;14.98;;;2.20;;
12302;SDS011;6214;48.012;7.862;2022-10-30T02:30:32;13.88;;;2.30;;
12302;SDS011;6214;48.012;7.862;2022-10-30T02:32:59;14.43;;;2.00;;
12302;SDS011;6214;48.012;7.862;2022-10-30T02:35:26;13.10;;;2.17;;
12302;SDS011;6214;48.012;7.862;2022-10-30T02:37:55;16.83;;;2.58;;
12302;SDS011;6214;48.012;7.862;2022-10-30T02:40:22;15.80;;;2.60;;
12302;SDS011;6214;48.012;7.862;2022-10-30T02:42:52;13.63;;;2.40;;
12302;SDS011;6214;48.012;7.862;2022-10-30T02:45:20;15.95;;;3.67;;
12302;SDS011;6214;48.012;7.862;2022-10-30T02:47:47;17.02;;;3.70;;
12302;SDS011;6214;48.012;7.862;2022-10-30T02:50:15;14.82;;;4.00;;
12302;SDS011;6214;48.012;7.862;2022-10-30T02:52:42;14.38;;;3.88;;
12302;SDS011;6214;48.012;7.862;2022-10-30T02:55:08;16.83;;;4.47;;
12302;SDS011;6214;48.012;7.862;2022-10-30T02:57:35;16.92;;;4.00;;
12302;SDS011;6214;48.012;7.862;2022-10-30T03:00:03;16.60;;;3.90;;
12302;SDS011;6214;48.012;7.862;2022-10-30T03:02:30;16.13;;;3.53;;
12302;SDS011;6214;48.012;7.862;2022-10-30T03:04:57;17.02;;;4.10;;
12302;SDS011;6214;48.012;7.862;2022-10-30T03:07:24;15.23;;;3.80;;
12302;SDS011;6214;48.012;7.862;2022-10-30T03:09:50;16.17;;;3.90;;
12302;SDS011;6214;48.012;7.862;2022-10-30T03:12:19;20.52;;;4.25;;
12302;SDS011;6214;48.012;7.862;2022-10-30T03:14:47;17.30;;;3.65;;
12302;SDS011;6214;48.012;7.862;2022-10-30T03:17:14;15.98;;;3.70;;
12302;SDS011;6214;48.012;7.862;2022-10-30T03:19:41;16.40;;;3.80;;
12302;SDS011;6214;48.012;7.862;2022-10-30T03:22:07;13.88;;;3.00;;
12302;SDS011;6214;48.012;7.862;2022-10-30T03:24:34;16.13;;;3.40;;
12302;SDS011;6214;48.012;7.862;2022-10-30T03:27:01;15.45;;;3.28;;
12302;SDS011;6214;48.012;7.862;2022-10-30T03:29:28;15.50;;;2.97;;
12302;SDS011;6214;48.012;7.862;2022-10-30T03:31:55;15.70;;;3.40;;
12302;SDS011;6214;48.012;7.862;2022-10-30T03:34:22;15.23;;;3.20;;
12302;SDS011;6214;48.012;7.862;2022-10-30T03:36:48;15.32;;;3.00;;
12302;SDS011;6214;48.012;7.862;2022-10-30T03:39:15;14.52;;;3.20;;
12302;SDS011;6214;48.012;7.862;2022-10-30T03:41:42;15.20;;;3.23;;
12302;SDS011;6214;48.012;7.862;2022-10-30T03:44:09;17.13;;;3.40;;
12302;SDS011;6214;48.012;7.862;2022-10-30T03:46:36;14.65;;;3.20;;
12302;SDS011;6214;48.012;7.862;2022-10-30T03:49:03;14.82;;;3.15;;
12302;SDS011;6214;48.012;7.862;2022-10-30T03:51:30;15.20;;;2.90;;
12302;SDS011;6214;48.012;7.862;2022-10-30T03:53:57;13.90;;;3.10;;
12302;SDS011;6214;48.012;7.862;2022-10-30T03:56:24;14.63;;;2.90;;
12302;SDS011;6214;48.012;7.862;2022-10-30T03:58:51;14.40;;;2.87;;
12302;SDS011;6214;48.012;7.862;2022-10-30T04:01:18;15.63;;;3.60;;
12302;SDS011;6214;48.012;7.862;2022-10-30T04:03:45;14.70;;;2.63;;
12302;SDS011;6214;48.012;7.862;2022-10-30T04:06:12;12.40;;;2.60;;
12302;SDS011;6214;48.012;7.862;2022-10-30T04:08:39;14.70;;;2.78;;
12302;SDS011;6214;48.012;7.862;2022-10-30T04:11:08;15.80;;;3.25;;
12302;SDS011;6214;48.012;7.862;2022-10-30T04:13:35;13.13;;;2.80;;
12302;SDS011;6214;48.012;7.862;2022-10-30T04:16:02;14.57;;;3.30;;
12302;SDS011;6214;48.012;7.862;2022-10-30T04:18:29;14.55;;;2.92;;
12302;SDS011;6214;48.012;7.862;2022-10-30T04:20:57;14.32;;;2.90;;
12302;SDS011;6214;48.012;7.862;2022-10-30T04:23:25;14.52;;;2.70;;
12302;SDS011;6214;48.012;7.862;2022-10-30T04:25:51;13.63;;;2.43;;
12302;SDS011;6214;48.012;7.862;2022-10-30T04:28:18;14.20;;;2.63;;
12302;SDS011;6214;48.012;7.862;2022-10-30T04:30:46;13.57;;;2.63;;
12302;SDS011;6214;48.012;7.862;2022-10-30T04:33:14;16.77;;;2.87;;
12302;SDS011;6214;48.012;7.862;2022-10-30T04:35:40;15.03;;;3.00;;
12302;SDS011;6214;48.012;7.862;2022-10-30T04:38:08;13.05;;;2.67;;
12302;SDS011;6214;48.012;7.862;2022-10-30T04:40:38;14.90;;;2.78;;
12302;SDS011;6214;48.012;7.862;2022-10-30T04:43:06;12.77;;;2.50;;
12302;SDS011;6214;48.012;7.862;2022-10-30T04:45:34;16.98;;;3.10;;
12302;SDS011;6214;48.012;7.862;2022-10-30T04:48:07;13.57;;;2.75;;
12302;SDS011;6214;48.012;7.862;2022-10-30T04:50:41;13.93;;;2.60;;
12302;SDS011;6214;48.012;7.862;2022-10-30T04:53:16;13.85;;;2.80;;
12302;SDS011;6214;48.012;7.862;2022-10-30T04:55:44;14.57;;;3.10;;
12302;SDS011;6214;48.012;7.862;2022-10-30T04:58:11;15.70;;;3.42;;
12302;SDS011;6214;48.012;7.862;2022-10-30T05:00:38;15.13;;;2.97;;
12302;SDS011;6214;48.012;7.862;2022-10-30T05:03:06;16.30;;;3.20;;
12302;SDS011;6214;48.012;7.862;2022-10-30T05:05:33;15.95;;;3.08;;
12302;SDS011;6214;48.012;7.862;2022-10-30T05:07:59;14.27;;;2.90;;
12302;SDS011;6214;48.012;7.862;2022-10-30T05:10:27;13.10;;;2.67;;
12302;SDS011;6214;48.012;7.862;2022-10-30T05:12:54;14.50;;;2.80;;
12302;SDS011;6214;48.012;7.862;2022-10-30T05:15:21;14.43;;;3.17;;
12302;SDS011;6214;48.012;7.862;2022-10-30T05:17:51;14.60;;;3.13;;
12302;SDS011;6214;48.012;7.862;2022-10-30T05:20:21;14.50;;;3.17;;
12302;SDS011;6214;48.012;7.862;2022-10-30T05:22:55;14.75;;;2.92;;
12302;SDS011;6214;48.012;7.862;2022-10-30T05:25:22;13.70;;;2.88;;
12302;SDS011;6214;48.012;7.862;2022-10-30T05:27:56;13.50;;;2.90;;
12302;SDS011;6214;48.012;7.862;2022-10-30T05:30:25;14.50;;;3.20;;
12302;SDS011;6214;48.012;7.862;2022-10-30T05:33:03;14.60;;;2.95;;
12302;SDS011;6214;48.012;7.862;2022-10-30T05:35:32;12.88;;;3.00;;
12302;SDS011;6214;48.012;7.862;2022-10-30T05:38:00;15.38;;;3.58;;
12302;SDS011;6214;48.012;7.862;2022-10-30T05:40:28;14.75;;;2.95;;
12302;SDS011;6214;48.012;7.862;2022-10-30T05:42:55;14.48;;;2.90;;
12302;SDS011;6214;48.012;7.862;2022-10-30T05:45:22;15.80;;;3.30;;
12302;SDS011;6214;48.012;7.862;2022-10-30T05:47:56;14.57;;;3.70;;
12302;SDS011;6214;48.012;7.862;2022-10-30T05:50:26;14.75;;;3.17;;
12302;SDS011;6214;48.012;7.862;2022-10-30T05:52:54;14.82;;;3.40;;
12302;SDS011;6214;48.012;7.862;2022-10-30T05:55:25;15.27;;;3.20;;
12302;SDS011;6214;48.012;7.862;2022-10-30T05:57:58;14.57;;;3.00;;
12302;SDS011;6214;48.012;7.862;2022-10-30T06:00:28;14.27;;;2.90;;
12302;SDS011;6214;48.012;7.862;2022-10-30T06:03:00;12.93;;;2.80;;
12302;SDS011;6214;48.012;7.862;2022-10-30T06:05:29;12.88;;;2.70;;
12302;SDS011;6214;48.012;7.862;2022-10-30T06:07:57;14.65;;;3.00;;
12302;SDS011;6214;48.012;7.862;2022-10-30T06:10:24;14.40;;;3.30;;
12302;SDS011;6214;48.012;7.862;2022-10-30T06:12:53;13.50;;;2.65;;
12302;SDS011;6214;48.012;7.862;2022-10-30T06:15:25;13.85;;;3.05;;
12302;SDS011;6214;48.012;7.862;2022-10-30T06:17:53;14.37;;;3.13;;
12302;SDS011;6214;48.012;7.862;2022-10-30T06:20:21;16.55;;;3.10;;
12302;SDS011;6214;48.012;7.862;2022-10-30T06:22:59;16.83;;;3.08;;
12302;SDS011;6214;48.012;7.862;2022-10-30T06:25:31;15.17;;;2.90;;
12302;SDS011;6214;48.012;7.862;2022-10-30T06:28:06;14.75;;;2.97;;
12302;SDS011;6214;48.012;7.862;2022-10-30T06:30:34;13.05;;;3.00;;
12302;SDS011;6214;48.012;7.862;2022-10-30T06:33:02;16.02;;;3.10;;
12302;SDS011;6214;48.012;7.862;2022-10-30T06:35:30;13.77;;;3.45;;
12302;SDS011;6214;48.012;7.862;2022-10-30T06:37:57;14.02;;;3.15;;
12302;SDS011;6214;48.012;7.862;2022-10-30T06:40:26;14.03;;;3.03;;
12302;SDS011;6214;48.012;7.862;2022-10-30T06:42:53;12.90;;;2.70;;
12302;SDS011;6214;48.012;7.862;2022-10-30T06:45:21;13.93;;;2.90;;
12302;SDS011;6214;48.012;7.862;2022-10-30T06:47:49;14.80;;;2.90;;
12302;SDS011;6214;48.012;7.862;2022-10-30T06:50:16;14.75;;;3.20;;
12302;SDS011;6214;48.012;7.862;2022-10-30T06:52:45;14.53;;;2.60;;
12302;SDS011;6214;48.012;7.862;2022-10-30T06:55:13;14.30;;;3.07;;
12302;SDS011;6214;48.012;7.862;2022-10-30T06:57:40;13.95;;;3.05;;
12302;SDS011;6214;48.012;7.862;2022-10-30T07:00:07;17.05;;;2.90;;
12302;SDS011;6214;48.012;7.862;2022-10-30T07:02:35;13.80;;;3.10;;
12302;SDS011;6214;48.012;7.862;2022-10-30T07:05:02;14.98;;;2.60;;
12302;SDS011;6214;48.012;7.862;2022-10-30T07:07:29;14.00;;;2.75;;
12302;SDS011;6214;48.012;7.862;2022-10-30T07:09:56;13.32;;;2.72;;
12302;SDS011;6214;48.012;7.862;2022-10-30T07:12:23;14.40;;;2.78;;
12302;SDS011;6214;48.012;7.862;2022-10-30T07:14:50;12.82;;;2.60;;
12302;SDS011;6214;48.012;7.862;2022-10-30T07:17:17;13.37;;;2.80;;
12302;SDS011;6214;48.012;7.862;2022-10-30T07:19:44;15.77;;;2.80;;
12302;SDS011;6214;48.012;7.862;2022-10-30T07:22:10;14.18;;;2.60;;
12302;SDS011;6214;48.012;7.862;2022-10-30T07:24:37;14.20;;;3.20;;
12302;SDS011;6214;48.012;7.862;2022-10-30T07:27:04;14.57;;;2.70;;
12302;SDS011;6214;48.012;7.862;2022-10-30T07:29:31;14.13;;;2.80;;
12302;SDS011;6214;48.012;7.862;2022-10-30T07:31:58;13.07;;;2.70;;
12302;SDS011;6214;48.012;7.862;2022-10-30T07:34:29;13.68;;;2.80;;
12302;SDS011;6214;48.012;7.862;2022-10-30T07:36:56;14.60;;;3.10;;
12302;SDS011;6214;48.012;7.862;2022-10-30T07:39:23;13.73;;;2.90;;
12302;SDS011;6214;48.012;7.862;2022-10-30T07:41:50;14.30;;;2.97;;
12302;SDS011;6214;48.012;7.862;2022-10-30T07:44:16;14.80;;;3.00;;
12302;SDS011;6214;48.012;7.862;2022-10-30T07:46:43;12.90;;;2.80;;
12302;SDS011;6214;48.012;7.862;2022-10-30T07:49:10;13.00;;;2.50;;
12302;SDS011;6214;48.012;7.862;2022-10-30T07:51:37;12.32;;;2.70;;
12302;SDS011;6214;48.012;7.862;2022-10-30T07:54:04;14.13;;;3.13;;
12302;SDS011;6214;48.012;7.862;2022-10-30T07:56:31;14.93;;;3.30;;
12302;SDS011;6214;48.012;7.862;2022-10-30T07:58:58;13.93;;;3.00;;
12302;SDS011;6214;48.012;7.862;2022-10-30T08:01:24;13.32;;;2.78;;
12302;SDS011;6214;48.012;7.862;2022-10-30T08:03:52;15.18;;;3.03;;
12302;SDS011;6214;48.012;7.862;2022-10-30T08:06:18;13.80;;;2.90;;
12302;SDS011;6214;48.012;7.862;2022-10-30T08:08:51;14.97;;;3.40;;
12302;SDS011;6214;48.012;7.862;2022-10-30T08:11:18;13.93;;;3.30;;
12302;SDS011;6214;48.012;7.862;2022-10-30T08:13:45;14.40;;;3.80;;
12302;SDS011;6214;48.012;7.862;2022-10-30T08:16:12;19.05;;;5.40;;
12302;SDS011;6214;48.012;7.862;2022-10-30T08:18:39;19.15;;;5.60;;
12302;SDS011;6214;48.012;7.862;2022-10-30T08:21:08;20.33;;;5.33;;
12302;SDS011;6214;48.012;7.862;2022-10-30T08:23:35;17.55;;;5.78;;
12302;SDS011;6214;48.012;7.862;2022-10-30T08:26:02;17.75;;;5.60;;
12302;SDS011;6214;48.012;7.862;2022-10-30T08:28:30;14.88;;;5.30;;
12302;SDS011;6214;48.012;7.862;2022-10-30T08:30:58;15.60;;;5.20;;
12302;SDS011;6214;48.012;7.862;2022-10-30T08:33:26;18.73;;;6.40;;
12302;SDS011;6214;48.012;7.862;2022-10-30T08:35:54;17.27;;;6.05;;
12302;SDS011;6214;48.012;7.862;2022-10-30T08:38:23;16.70;;;5.50;;
12302;SDS011;6214;48.012;7.862;2022-10-30T08:40:51;17.90;;;5.40;;
12302;SDS011;6214;48.012;7.862;2022-10-30T08:43:18;19.83;;;5.22;;
12302;SDS011;6214;48.012;7.862;2022-10-30T08:45:45;17.50;;;5.00;;
12302;SDS011;6214;48.012;7.862;2022-10-30T08:48:14;17.90;;;5.30;;
12302;SDS011;6214;48.012;7.862;2022-10-30T08:50:41;18.42;;;4.82;;
12302;SDS011;6214;48.012;7.862;2022-10-30T08:53:10;17.00;;;5.03;;
12302;SDS011;6214;48.012;7.862;2022-10-30T08:55:39;16.00;;;5.18;;
12302;SDS011;6214;48.012;7.862;2022-10-30T08:58:06;16.43;;;4.73;;
12302;SDS011;6214;48.012;7.862;2022-10-30T09:00:33;17.50;;;5.05;;
12302;SDS011;6214;48.012;7.862;2022-10-30T09:03:00;16.73;;;5.05;;
12302;SDS011;6214;48.012;7.862;2022-10-30T09:05:28;17.77;;;4.90;;
12302;SDS011;6214;48.012;7.862;2022-10-30T09:07:56;16.70;;;5.20;;
12302;SDS011;6214;48.012;7.862;2022-10-30T09:10:28;16.47;;;4.97;;
12302;SDS011;6214;48.012;7.862;2022-10-30T09:12:58;18.55;;;5.10;;
12302;SDS011;6214;48.012;7.862;2022-10-30T09:15:27;16.42;;;4.30;;
12302;SDS011;6214;48.012;7.862;2022-10-30T09:17:57;16.58;;;5.07;;
12302;SDS011;6214;48.012;7.862;2022-10-30T09:20:26;16.45;;;4.70;;
12302;SDS011;6214;48.012;7.862;2022-10-30T09:22:54;15.70;;;4.57;;
12302;SDS011;6214;48.012;7.862;2022-10-30T09:25:21;15.45;;;4.70;;
12302;SDS011;6214;48.012;7.862;2022-10-30T09:27:48;15.70;;;4.85;;
12302;SDS011;6214;48.012;7.862;2022-10-30T09:30:15;14.48;;;4.40;;
12302;SDS011;6214;48.012;7.862;2022-10-30T09:32:42;16.15;;;4.43;;
12302;SDS011;6214;48.012;7.862;2022-10-30T09:35:09;16.25;;;4.43;;
12302;SDS011;6214;48.012;7.862;2022-10-30T09:37:36;14.05;;;3.92;;
12302;SDS011;6214;48.012;7.862;2022-10-30T09:40:04;14.95;;;4.30;;
12302;SDS011;6214;48.012;7.862;2022-10-30T09:42:39;14.93;;;4.63;;
12302;SDS011;6214;48.012;7.862;2022-10-30T09:48:34;16.92;;;4.60;;
12302;SDS011;6214;48.012;7.862;2022-10-30T10:05:58;14.80;;;4.85;;
12302;SDS011;6214;48.012;7.862;2022-10-30T10:11:08;15.00;;;4.97;;
12302;SDS011;6214;48.012;7.862;2022-10-30T10:13:43;16.60;;;5.03;;
12302;SDS011;6214;48.012;7.862;2022-10-30T10:16:17;15.88;;;4.88;;
12302;SDS011;6214;48.012;7.862;2022-10-30T10:18:51;16.23;;;4.88;;
12302;SDS011;6214;48.012;7.862;2022-10-30T10:21:26;17.17;;;4.80;;
12302;SDS011;6214;48.012;7.862;2022-10-30T10:23:55;18.63;;;6.00;;
12302;SDS011;6214;48.012;7.862;2022-10-30T10:29:25;16.73;;;4.77;;
12302;SDS011;6214;48.012;7.862;2022-10-30T10:51:19;16.70;;;5.50;;
12302;SDS011;6214;48.012;7.862;2022-10-30T10:53:54;17.05;;;5.90;;
12302;SDS011;6214;48.012;7.862;2022-10-30T10:56:45;17.92;;;6.00;;
12302;SDS011;6214;48.012;7.862;2022-10-30T10:59:19;17.33;;;5.50;;
12302;SDS011;6214;48.012;7.862;2022-10-30T11:01:50;16.70;;;5.50;;
12302;SDS011;6214;48.012;7.862;2022-10-30T11:04:40;16.75;;;4.88;;
12302;SDS011;6214;48.012;7.862;2022-10-30T11:09:51;16.97;;;5.20;;
12302;SDS011;6214;48.012;7.862;2022-10-30T11:12:20;17.48;;;5.13;;
12302;SDS011;6214;48.012;7.862;2022-10-30T11:14:57;17.13;;;5.05;;
12302;SDS011;6214;48.012;7.862;2022-10-30T11:17:32;16.45;;;5.00;;
12302;SDS011;6214;48.012;7.862;2022-10-30T11:20:20;18.35;;;4.78;;
12302;SDS011;6214;48.012;7.862;2022-10-30T11:31:30;18.48;;;4.95;;
12302;SDS011;6214;48.012;7.862;2022-10-30T11:34:12;16.23;;;4.47;;
12302;SDS011;6214;48.012;7.862;2022-10-30T11:36:45;17.17;;;4.80;;
12302;SDS011;6214;48.012;7.862;2022-10-30T11:39:18;15.82;;;4.70;;
12302;SDS011;6214;48.012;7.862;2022-10-30T11:47:00;15.60;;;4.85;;
12302;SDS011;6214;48.012;7.862;2022-10-30T11:52:01;15.60;;;4.53;;
12302;SDS011;6214;48.012;7.862;2022-10-30T11:54:33;16.00;;;4.83;;
12302;SDS011;6214;48.012;7.862;2022-10-30T11:57:02;16.80;;;4.57;;
12302;SDS011;6214;48.012;7.862;2022-10-30T11:59:30;16.42;;;4.50;;
12302;SDS011;6214;48.012;7.862;2022-10-30T12:02:18;16.02;;;5.18;;
12302;SDS011;6214;48.012;7.862;2022-10-30T12:04:48;15.77;;;4.47;;
12302;SDS011;6214;48.012;7.862;2022-10-30T12:07:23;19.80;;;4.70;;
12302;SDS011;6214;48.012;7.862;2022-10-30T12:09:57;17.25;;;4.85;;
12302;SDS011;6214;48.012;7.862;2022-10-30T12:12:26;14.45;;;4.30;;
12302;SDS011;6214;48.012;7.862;2022-10-30T12:15:09;15.68;;;4.38;;
12302;SDS011;6214;48.012;7.862;2022-10-30T12:17:54;15.93;;;4.53;;
12302;SDS011;6214;48.012;7.862;2022-10-30T12:20:26;15.70;;;4.60;;
12302;SDS011;6214;48.012;7.862;2022-10-30T12:22:53;16.50;;;4.60;;
12302;SDS011;6214;48.012;7.862;2022-10-30T12:25:25;16.60;;;4.80;;
12302;SDS011;6214;48.012;7.862;2022-10-30T12:27:58;15.93;;;4.50;;
12302;SDS011;6214;48.012;7.862;2022-10-30T12:30:33;15.13;;;4.35;;
12302;SDS011;6214;48.012;7.862;2022-10-30T12:41:27;15.50;;;4.40;;
12302;SDS011;6214;48.012;7.862;2022-10-30T13:00:51;14.30;;;4.00;;
12302;SDS011;6214;48.012;7.862;2022-10-30T13:06:45;16.33;;;4.60;;
12302;SDS011;6214;48.012;7.862;2022-10-30T13:09:20;13.38;;;3.92;;
12302;SDS011;6214;48.012;7.862;2022-10-30T13:11:52;16.33;;;4.40;;
12302;SDS011;6214;48.012;7.862;2022-10-30T13:14:21;16.75;;;4.40;;
12302;SDS011;6214;48.012;7.862;2022-10-30T13:17:10;15.18;;;4.43;;
12302;SDS011;6214;48.012;7.862;2022-10-30T13:19:39;16.15;;;4.45;;
12302;SDS011;6214;48.012;7.862;2022-10-30T13:30:26;14.60;;;4.50;;
12302;SDS011;6214;48.012;7.862;2022-10-30T13:35:42;14.32;;;3.92;;
12302;SDS011;6214;48.012;7.862;2022-10-30T13:38:35;15.52;;;4.18;;
12302;SDS011;6214;48.012;7.862;2022-10-30T13:49:34;17.35;;;4.20;;
12302;SDS011;6214;48.012;7.862;2022-10-30T13:52:23;15.23;;;4.25;;
12302;SDS011;6214;48.012;7.862;2022-10-30T14:01:14;16.50;;;4.28;;
12302;SDS011;6214;48.012;7.862;2022-10-30T14:09:18;16.33;;;3.70;;
12302;SDS011;6214;48.012;7.862;2022-10-30T14:11:46;15.23;;;3.67;;
12302;SDS011;6214;48.012;7.862;2022-10-30T14:20:20;15.13;;;4.10;;
12302;SDS011;6214;48.012;7.862;2022-10-30T14:22:39;14.50;;;3.83;;
12302;SDS011;6214;48.012;7.862;2022-10-30T14:25:13;16.67;;;4.30;;
12302;SDS011;6214;48.012;7.862;2022-10-30T14:27:41;16.95;;;4.53;;
12302;SDS011;6214;48.012;7.862;2022-10-30T14:30:17;16.40;;;4.40;;
12302;SDS011;6214;48.012;7.862;2022-10-30T14:32:49;16.73;;;4.60;;
12302;SDS011;6214;48.012;7.862;2022-10-30T14:35:34;16.48;;;4.50;;
12302;SDS011;6214;48.012;7.862;2022-10-30T14:40:54;15.30;;;4.55;;
12302;SDS011;6214;48.012;7.862;2022-10-30T14:43:42;16.10;;;4.37;;
12302;SDS011;6214;48.012;7.862;2022-10-30T14:49:10;16.48;;;4.00;;
12302;SDS011;6214;48.012;7.862;2022-10-30T14:52:10;16.38;;;4.53;;
12302;SDS011;6214;48.012;7.862;2022-10-30T14:57:52;14.40;;;4.10;;
12302;SDS011;6214;48.012;7.862;2022-10-30T15:14:17;17.42;;;4.65;;
12302;SDS011;6214;48.012;7.862;2022-10-30T15:17:18;15.52;;;4.05;;
12302;SDS011;6214;48.012;7.862;2022-10-30T15:19:53;14.48;;;4.00;;
12302;SDS011;6214;48.012;7.862;2022-10-30T15:22:21;15.43;;;4.00;;
12302;SDS011;6214;48.012;7.862;2022-10-30T15:24:51;15.45;;;4.38;;
12302;SDS011;6214;48.012;7.862;2022-10-30T15:27:19;14.77;;;4.15;;
12302;SDS011;6214;48.012;7.862;2022-10-30T15:29:49;16.70;;;4.20;;
12302;SDS011;6214;48.012;7.862;2022-10-30T15:32:22;15.10;;;4.43;;
12302;SDS011;6214;48.012;7.862;2022-10-30T15:34:54;14.70;;;3.90;;
12302;SDS011;6214;48.012;7.862;2022-10-30T15:37:29;14.77;;;3.90;;
12302;SDS011;6214;48.012;7.862;2022-10-30T15:40:16;15.05;;;4.20;;
12302;SDS011;6214;48.012;7.862;2022-10-30T15:42:45;15.30;;;4.30;;
12302;SDS011;6214;48.012;7.862;2022-10-30T15:45:18;18.60;;;4.30;;
12302;SDS011;6214;48.012;7.862;2022-10-30T15:48:00;15.90;;;4.15;;
12302;SDS011;6214;48.012;7.862;2022-10-30T15:50:32;15.73;;;3.90;;
12302;SDS011;6214;48.012;7.862;2022-10-30T15:52:59;14.10;;;4.10;;
12302;SDS011;6214;48.012;7.862;2022-10-30T15:55:27;14.20;;;3.92;;
12302;SDS011;6214;48.012;7.862;2022-10-30T15:57:59;15.25;;;4.10;;
12302;SDS011;6214;48.012;7.862;2022-10-30T16:00:31;14.10;;;4.00;;
12302;SDS011;6214;48.012;7.862;2022-10-30T16:03:01;16.30;;;4.32;;
12302;SDS011;6214;48.012;7.862;2022-10-30T16:05:40;15.90;;;4.38;;
12302;SDS011;6214;48.012;7.862;2022-10-30T16:08:15;14.70;;;4.27;;
12302;SDS011;6214;48.012;7.862;2022-10-30T16:10:46;16.95;;;4.30;;
12302;SDS011;6214;48.012;7.862;2022-10-30T16:13:29;16.17;;;4.65;;
12302;SDS011;6214;48.012;7.862;2022-10-30T16:15:57;15.80;;;3.90;;
12302;SDS011;6214;48.012;7.862;2022-10-30T16:18:25;14.73;;;4.50;;
12302;SDS011;6214;48.012;7.862;2022-10-30T16:20:56;15.90;;;3.90;;
12302;SDS011;6214;48.012;7.862;2022-10-30T16:23:28;14.32;;;3.90;;
12302;SDS011;6214;48.012;7.862;2022-10-30T16:25:56;14.50;;;3.55;;
12302;SDS011;6214;48.012;7.862;2022-10-30T16:30:56;16.08;;;4.07;;
12302;SDS011;6214;48.012;7.862;2022-10-30T16:33:29;14.80;;;4.10;;
12302;SDS011;6214;48.012;7.862;2022-10-30T16:35:59;15.07;;;3.80;;
12302;SDS011;6214;48.012;7.862;2022-10-30T16:38:30;15.25;;;3.83;;
12302;SDS011;6214;48.012;7.862;2022-10-30T16:41:05;15.50;;;3.90;;
12302;SDS011;6214;48.012;7.862;2022-10-30T16:43:42;15.10;;;3.45;;
12302;SDS011;6214;48.012;7.862;2022-10-30T16:46:31;16.02;;;4.30;;
12302;SDS011;6214;48.012;7.862;2022-10-30T16:49:10;14.57;;;3.73;;
12302;SDS011;6214;48.012;7.862;2022-10-30T16:51:42;14.40;;;3.50;;
12302;SDS011;6214;48.012;7.862;2022-10-30T16:54:19;14.97;;;3.60;;
12302;SDS011;6214;48.012;7.862;2022-10-30T16:56:50;13.73;;;3.40;;
12302;SDS011;6214;48.012;7.862;2022-10-30T16:59:26;17.08;;;3.72;;
12302;SDS011;6214;48.012;7.862;2022-10-30T17:01:59;14.43;;;3.50;;
12302;SDS011;6214;48.012;7.862;2022-10-30T17:04:32;14.33;;;3.77;;
12302;SDS011;6214;48.012;7.862;2022-10-30T17:07:04;15.13;;;3.83;;
12302;SDS011;6214;48.012;7.862;2022-10-30T17:09:33;13.32;;;3.70;;
12302;SDS011;6214;48.012;7.862;2022-10-30T17:12:09;15.82;;;3.90;;
12302;SDS011;6214;48.012;7.862;2022-10-30T17:17:23;17.02;;;4.47;;
12302;SDS011;6214;48.012;7.862;2022-10-30T17:19:56;15.65;;;4.43;;
12302;SDS011;6214;48.012;7.862;2022-10-30T17:22:29;14.57;;;4.20;;
12302;SDS011;6214;48.012;7.862;2022-10-30T17:24:56;16.00;;;4.05;;
12302;SDS011;6214;48.012;7.862;2022-10-30T17:27:35;15.30;;;3.90;;
12302;SDS011;6214;48.012;7.862;2022-10-30T17:30:28;14.13;;;3.70;;
12302;SDS011;6214;48.012;7.862;2022-10-30T17:32:57;13.98;;;3.60;;
12302;SDS011;6214;48.012;7.862;2022-10-30T17:35:24;17.17;;;3.72;;
12302;SDS011;6214;48.012;7.862;2022-10-30T17:37:51;14.10;;;3.80;;
12302;SDS011;6214;48.012;7.862;2022-10-30T17:40:18;15.40;;;3.60;;
12302;SDS011;6214;48.012;7.862;2022-10-30T17:42:45;17.20;;;3.65;;
12302;SDS011;6214;48.012;7.862;2022-10-30T17:45:16;14.80;;;4.13;;
12302;SDS011;6214;48.012;7.862;2022-10-30T17:47:43;14.07;;;3.63;;
12302;SDS011;6214;48.012;7.862;2022-10-30T17:50:10;14.00;;;3.37;;
12302;SDS011;6214;48.012;7.862;2022-10-30T17:52:37;15.30;;;3.10;;
12302;SDS011;6214;48.012;7.862;2022-10-30T17:55:07;15.00;;;3.40;;
12302;SDS011;6214;48.012;7.862;2022-10-30T17:57:47;14.98;;;3.75;;
12302;SDS011;6214;48.012;7.862;2022-10-30T18:00:14;14.55;;;3.60;;
12302;SDS011;6214;48.012;7.862;2022-10-30T18:02:42;14.50;;;3.42;;
12302;SDS011;6214;48.012;7.862;2022-10-30T18:05:11;16.70;;;3.60;;
12302;SDS011;6214;48.012;7.862;2022-10-30T18:07:42;16.30;;;4.50;;
12302;SDS011;6214;48.012;7.862;2022-10-30T18:10:09;18.27;;;3.30;;
12302;SDS011;6214;48.012;7.862;2022-10-30T18:12:37;16.65;;;3.60;;